createdAt,value
2018-10-18T00:00:17.600Z,911.32
2018-10-18T00:01:17.488Z,911.32
2018-10-18T00:02:17.572Z,911.34
2018-10-18T00:03:17.509Z,911.37
2018-10-18T00:04:17.398Z,911.40
2018-10-18T00:05:17.823Z,911.37
2018-10-18T00:06:17.396Z,911.44
2018-10-18T00:07:17.377Z,911.46
2018-10-18T00:08:17.351Z,911.50
2018-10-18T00:09:17.260Z,911.49
2018-10-18T00:10:17.214Z,911.48
2018-10-18T00:11:17.419Z,911.48
2018-10-18T00:12:17.185Z,911.51
2018-10-18T00:13:17.120Z,911.52
2018-10-18T00:14:17.186Z,911.56
2018-10-18T00:15:17.063Z,911.59
2018-10-18T00:16:17.057Z,911.55
2018-10-18T00:17:16.995Z,911.57
2018-10-18T00:18:17.049Z,911.60
2018-10-18T00:19:16.958Z,911.62
2018-10-18T00:20:16.942Z,911.62
2018-10-18T00:21:17.032Z,911.64
2018-10-18T00:22:16.866Z,911.63
2018-10-18T00:23:16.935Z,911.60
2018-10-18T00:24:16.889Z,911.58
2018-10-18T00:25:16.826Z,911.60
2018-10-18T00:26:16.786Z,911.61
2018-10-18T00:27:16.779Z,911.62
2018-10-18T00:28:16.668Z,911.66
2018-10-18T00:29:16.636Z,911.66
2018-10-18T00:30:16.724Z,911.67
2018-10-18T00:31:16.580Z,911.65
2018-10-18T00:32:16.655Z,911.67
2018-10-18T00:33:16.538Z,911.68
2018-10-18T00:34:16.475Z,911.68
2018-10-18T00:35:16.489Z,911.70
2018-10-18T00:36:16.473Z,911.72
2018-10-18T00:37:16.410Z,911.73
2018-10-18T00:38:16.467Z,911.75
2018-10-18T00:39:16.332Z,911.70
2018-10-18T00:40:16.547Z,911.71
2018-10-18T00:41:16.286Z,911.76
2018-10-18T00:42:16.345Z,911.79
2018-10-18T00:43:16.570Z,911.78
2018-10-18T00:44:16.248Z,911.82
2018-10-18T00:45:16.149Z,911.82
2018-10-18T00:46:16.118Z,911.80
2018-10-18T00:47:16.083Z,911.83
2018-10-18T00:48:16.142Z,911.83
2018-10-18T00:49:16.032Z,911.83
2018-10-18T00:50:16.023Z,911.82
2018-10-18T00:51:15.963Z,911.82
2018-10-18T00:52:15.934Z,911.81
2018-10-18T00:53:15.923Z,911.81
2018-10-18T00:54:15.972Z,911.85
2018-10-18T00:55:15.867Z,911.87
2018-10-18T00:56:15.851Z,911.88
2018-10-18T00:57:15.825Z,911.88
2018-10-18T00:58:15.754Z,911.84
2018-10-18T00:59:15.873Z,911.88
2018-10-18T01:00:15.836Z,911.86
2018-10-18T01:01:15.673Z,911.88
2018-10-18T01:02:15.727Z,911.89
2018-10-18T01:03:15.627Z,911.91
2018-10-18T01:04:15.840Z,911.91
2018-10-18T01:05:15.587Z,911.90
2018-10-18T01:06:15.550Z,911.91
2018-10-18T01:07:15.478Z,911.92
2018-10-18T01:08:15.722Z,911.93
2018-10-18T01:09:15.424Z,911.96
2018-10-18T01:10:15.545Z,911.96
2018-10-18T01:11:15.360Z,911.94
2018-10-18T01:12:15.404Z,911.96
2018-10-18T01:13:48.518Z,912.00
2018-10-18T01:14:15.355Z,912.01
2018-10-18T01:15:15.227Z,912.02
2018-10-18T01:16:48.425Z,912.03
2018-10-18T01:17:15.178Z,912.07
2018-10-18T01:18:15.269Z,912.09
2018-10-18T01:19:48.335Z,912.09
2018-10-18T01:25:28.544Z,912.18
2018-10-18T01:26:28.496Z,912.21
2018-10-18T01:27:28.483Z,912.19
2018-10-18T01:28:28.449Z,912.20
2018-10-18T01:29:28.640Z,912.21
2018-10-18T01:30:28.398Z,912.23
2018-10-18T01:31:28.361Z,912.19
2018-10-18T01:32:28.328Z,912.22
2018-10-18T01:33:28.492Z,912.25
2018-10-18T01:34:29.817Z,912.26
2018-10-18T01:35:28.245Z,912.27
2018-10-18T01:36:28.234Z,912.25
2018-10-18T01:37:28.173Z,912.25
2018-10-18T01:38:28.148Z,912.28
2018-10-18T01:39:28.121Z,912.24
2018-10-18T01:40:29.194Z,912.25
2018-10-18T01:41:28.064Z,912.22
2018-10-18T01:42:28.328Z,912.24
2018-10-18T01:43:27.981Z,912.27
2018-10-18T01:44:27.948Z,912.26
2018-10-18T01:45:27.925Z,912.33
2018-10-18T01:46:27.893Z,912.31
2018-10-18T01:47:27.912Z,912.30
2018-10-18T01:48:27.837Z,912.29
2018-10-18T01:49:27.812Z,912.28
2018-10-18T01:50:27.783Z,912.27
2018-10-18T01:51:27.738Z,912.28
2018-10-18T01:52:27.722Z,912.26
2018-10-18T01:53:27.680Z,912.29
2018-10-18T01:54:27.665Z,912.30
2018-10-18T01:55:27.629Z,912.31
2018-10-18T01:56:27.596Z,912.27
2018-10-18T01:57:27.758Z,912.27
2018-10-18T01:58:27.721Z,912.28
2018-10-18T01:59:27.511Z,912.26
2018-10-18T02:00:27.473Z,912.29
2018-10-18T02:01:27.430Z,912.26
2018-10-18T02:02:27.393Z,912.30
2018-10-18T02:03:27.376Z,912.33
2018-10-18T02:04:27.342Z,912.34
2018-10-18T02:05:27.308Z,912.33
2018-10-18T02:06:27.290Z,912.30
2018-10-18T02:07:27.240Z,912.27
2018-10-18T02:08:27.224Z,912.24
2018-10-18T02:09:27.203Z,912.23
2018-10-18T02:10:27.141Z,912.24
2018-10-18T02:11:27.131Z,912.21
2018-10-18T02:12:27.097Z,912.18
2018-10-18T02:13:27.104Z,912.20
2018-10-18T02:14:27.385Z,912.17
2018-10-18T02:15:27.022Z,912.14
2018-10-18T02:16:26.966Z,912.15
2018-10-18T02:17:26.948Z,912.12
2018-10-18T02:18:26.910Z,912.10
2018-10-18T02:19:26.878Z,912.08
2018-10-18T02:20:27.048Z,912.03
2018-10-18T02:21:26.811Z,912.01
2018-10-18T02:22:26.781Z,912.00
2018-10-18T02:23:26.750Z,911.99
2018-10-18T02:24:26.723Z,911.95
2018-10-18T02:25:26.701Z,911.93
2018-10-18T02:26:26.662Z,911.92
2018-10-18T02:27:26.633Z,911.90
2018-10-18T02:28:26.606Z,911.92
2018-10-18T02:29:26.565Z,911.91
2018-10-18T02:30:26.560Z,911.93
2018-10-18T02:31:26.517Z,911.95
2018-10-18T02:32:26.474Z,911.93
2018-10-18T02:33:26.502Z,911.95
2018-10-18T02:34:26.438Z,911.95
2018-10-18T02:35:26.391Z,911.96
2018-10-18T02:36:26.363Z,911.97
2018-10-18T02:37:26.321Z,911.94
2018-10-18T02:38:26.292Z,911.93
2018-10-18T02:39:26.260Z,911.92
2018-10-18T02:40:26.240Z,911.89
2018-10-18T02:41:26.199Z,911.92
2018-10-18T02:42:26.183Z,911.92
2018-10-18T02:43:26.133Z,911.92
2018-10-18T02:44:26.101Z,911.94
2018-10-18T02:45:26.063Z,911.91
2018-10-18T02:46:26.035Z,911.88
2018-10-18T02:47:26.334Z,911.84
2018-10-18T02:48:25.997Z,911.87
2018-10-18T02:49:25.957Z,911.84
2018-10-18T02:50:25.913Z,911.84
2018-10-18T02:51:25.879Z,911.86
2018-10-18T02:52:25.847Z,911.86
2018-10-18T02:53:25.830Z,911.85
2018-10-18T02:54:25.785Z,911.86
2018-10-18T02:55:25.769Z,911.85
2018-10-18T02:56:25.723Z,911.84
2018-10-18T02:57:25.703Z,911.86
2018-10-18T02:58:25.658Z,911.80
2018-10-18T02:59:25.650Z,911.82
2018-10-18T03:00:25.620Z,911.76
2018-10-18T03:01:25.575Z,911.74
2018-10-18T03:02:25.545Z,911.74
2018-10-18T03:03:25.526Z,911.73
2018-10-18T03:04:25.484Z,911.69
2018-10-18T03:05:25.467Z,911.73
2018-10-18T03:06:25.428Z,911.68
2018-10-18T03:07:25.389Z,911.72
2018-10-18T03:08:25.357Z,911.72
2018-10-18T03:09:25.332Z,911.71
2018-10-18T03:10:25.289Z,911.73
2018-10-18T03:11:25.265Z,911.66
2018-10-18T03:12:25.229Z,911.68
2018-10-18T03:13:25.228Z,911.68
2018-10-18T03:14:25.265Z,911.70
2018-10-18T03:15:25.132Z,911.67
2018-10-18T03:16:25.112Z,911.66
2018-10-18T03:17:25.069Z,911.64
2018-10-18T03:18:25.054Z,911.62
2018-10-18T03:19:25.035Z,911.62
2018-10-18T03:20:24.976Z,911.61
2018-10-18T03:21:24.950Z,911.63
2018-10-18T03:22:24.923Z,911.58
2018-10-18T03:23:24.881Z,911.60
2018-10-18T03:24:24.854Z,911.60
2018-10-18T03:25:24.823Z,911.58
2018-10-18T03:26:24.790Z,911.59
2018-10-18T03:27:24.757Z,911.61
2018-10-18T03:28:24.739Z,911.54
2018-10-18T03:29:24.701Z,911.57
2018-10-18T03:30:24.675Z,911.54
2018-10-18T03:31:24.655Z,911.58
2018-10-18T03:32:24.614Z,911.53
2018-10-18T03:33:24.634Z,911.53
2018-10-18T03:34:24.547Z,911.60
2018-10-18T03:35:24.558Z,911.55
2018-10-18T03:36:24.514Z,911.58
2018-10-18T03:37:24.445Z,911.58
2018-10-18T03:38:24.420Z,911.59
2018-10-18T03:39:24.393Z,911.53
2018-10-18T03:40:24.381Z,911.51
2018-10-18T03:41:24.432Z,911.50
2018-10-18T03:42:24.303Z,911.48
2018-10-18T03:43:24.288Z,911.48
2018-10-18T03:44:24.234Z,911.50
2018-10-18T03:45:24.203Z,911.45
2018-10-18T03:46:24.167Z,911.43
2018-10-18T03:47:24.150Z,911.42
2018-10-18T03:48:24.112Z,911.46
2018-10-18T03:49:24.079Z,911.39
2018-10-18T03:50:24.045Z,911.39
2018-10-18T03:51:24.009Z,911.38
2018-10-18T03:52:23.985Z,911.39
2018-10-18T03:53:23.960Z,911.35
2018-10-18T03:54:23.922Z,911.34
2018-10-18T03:55:23.884Z,911.32
2018-10-18T03:56:23.865Z,911.30
2018-10-18T03:57:23.824Z,911.29
2018-10-18T03:58:23.845Z,911.31
2018-10-18T03:59:23.821Z,911.30
2018-10-18T04:00:23.733Z,911.30
2018-10-18T04:01:23.708Z,911.30
2018-10-18T04:02:23.747Z,911.30
2018-10-18T04:03:23.641Z,911.34
2018-10-18T04:04:23.605Z,911.32
2018-10-18T04:05:23.591Z,911.33
2018-10-18T04:06:23.552Z,911.32
2018-10-18T04:07:23.524Z,911.31
2018-10-18T04:08:23.678Z,911.31
2018-10-18T04:09:23.450Z,911.24
2018-10-18T04:10:23.430Z,911.26
2018-10-18T04:11:23.394Z,911.20
2018-10-18T04:12:23.489Z,911.23
2018-10-18T04:13:23.603Z,911.19
2018-10-18T04:14:23.295Z,911.19
2018-10-18T04:15:23.259Z,911.18
2018-10-18T04:16:23.235Z,911.17
2018-10-18T04:17:23.195Z,911.19
2018-10-18T04:18:23.249Z,911.17
2018-10-18T04:19:23.153Z,911.15
2018-10-18T04:20:23.106Z,911.14
2018-10-18T04:21:23.084Z,911.12
2018-10-18T04:22:23.043Z,911.09
2018-10-18T04:23:23.017Z,911.07
2018-10-18T04:24:22.978Z,911.01
2018-10-18T04:25:23.003Z,910.99
2018-10-18T04:26:22.922Z,911.01
2018-10-18T04:27:22.883Z,910.95
2018-10-18T04:28:22.852Z,910.94
2018-10-18T04:29:22.829Z,910.93
2018-10-18T04:30:22.798Z,910.91
2018-10-18T04:31:22.770Z,910.89
2018-10-18T04:32:22.734Z,910.90
2018-10-18T04:33:22.703Z,910.91
2018-10-18T04:34:22.668Z,910.89
2018-10-18T04:35:22.647Z,910.88
2018-10-18T04:36:22.602Z,910.86
2018-10-18T04:37:22.632Z,910.82
2018-10-18T04:38:22.549Z,910.84
2018-10-18T04:39:22.525Z,910.78
2018-10-18T04:40:22.481Z,910.78
2018-10-18T04:41:22.452Z,910.83
2018-10-18T04:42:22.422Z,910.81
2018-10-18T04:43:22.399Z,910.81
2018-10-18T04:44:22.361Z,910.82
2018-10-18T04:45:22.327Z,910.79
2018-10-18T04:46:22.287Z,910.78
2018-10-18T04:47:22.305Z,910.79
2018-10-18T04:48:22.328Z,910.76
2018-10-18T04:49:22.209Z,910.77
2018-10-18T04:50:22.165Z,910.73
2018-10-18T04:51:22.132Z,910.71
2018-10-18T04:52:22.103Z,910.73
2018-10-18T04:53:22.068Z,910.70
2018-10-18T04:54:22.042Z,910.70
2018-10-18T04:55:22.008Z,910.70
2018-10-18T04:56:21.978Z,910.70
2018-10-18T04:57:21.944Z,910.71
2018-10-18T04:58:21.908Z,910.67
2018-10-18T04:59:21.881Z,910.67
2018-10-18T05:00:21.847Z,910.67
2018-10-18T05:01:22.002Z,910.68
2018-10-18T05:02:21.787Z,910.70
2018-10-18T05:03:21.778Z,910.66
2018-10-18T05:04:21.720Z,910.65
2018-10-18T05:05:21.698Z,910.65
2018-10-18T05:06:21.661Z,910.66
2018-10-18T05:07:21.630Z,910.65
2018-10-18T05:08:21.613Z,910.63
2018-10-18T05:09:21.576Z,910.58
2018-10-18T05:10:21.780Z,910.57
2018-10-18T05:11:21.531Z,910.55
2018-10-18T05:12:21.520Z,910.50
2018-10-18T05:13:21.446Z,910.49
2018-10-18T05:14:21.409Z,910.50
2018-10-18T05:15:21.377Z,910.45
2018-10-18T05:16:21.347Z,910.44
2018-10-18T05:17:21.323Z,910.40
2018-10-18T05:18:21.289Z,910.36
2018-10-18T05:19:21.263Z,910.36
2018-10-18T05:20:21.227Z,910.31
2018-10-18T05:21:21.249Z,910.27
2018-10-18T05:22:21.227Z,910.23
2018-10-18T05:23:21.130Z,910.20
2018-10-18T05:24:21.101Z,910.17
2018-10-18T05:25:21.211Z,910.15
2018-10-18T05:26:21.297Z,910.15
2018-10-18T05:27:20.997Z,910.09
2018-10-18T05:28:20.975Z,910.10
2018-10-18T05:29:20.974Z,910.07
2018-10-18T05:30:20.916Z,910.07
2018-10-18T05:31:20.995Z,910.07
2018-10-18T05:32:20.847Z,910.06
2018-10-18T05:33:20.808Z,910.03
2018-10-18T05:34:20.795Z,910.01
2018-10-18T05:35:20.761Z,910.01
2018-10-18T05:36:20.713Z,909.97
2018-10-18T05:37:20.708Z,909.94
2018-10-18T05:38:20.654Z,909.93
2018-10-18T05:39:20.621Z,909.96
2018-10-18T05:40:20.590Z,909.93
2018-10-18T05:41:20.559Z,909.94
2018-10-18T05:42:20.527Z,909.89
2018-10-18T05:43:20.593Z,909.94
2018-10-18T05:44:20.467Z,909.98
2018-10-18T05:45:20.436Z,909.98
2018-10-18T05:46:20.406Z,909.94
2018-10-18T05:47:20.406Z,909.98
2018-10-18T05:48:20.345Z,909.97
2018-10-18T05:49:20.371Z,909.97
2018-10-18T05:50:20.275Z,909.98
2018-10-18T05:51:20.242Z,909.99
2018-10-18T05:52:20.224Z,910.00
2018-10-18T05:53:20.234Z,910.08
2018-10-18T05:54:20.449Z,910.04
2018-10-18T05:55:20.117Z,910.05
2018-10-18T05:56:20.159Z,910.03
2018-10-18T05:57:20.070Z,910.06
2018-10-18T05:58:20.033Z,910.07
2018-10-18T05:59:19.998Z,910.06
2018-10-18T06:00:20.002Z,910.04
2018-10-18T06:01:19.930Z,910.05
2018-10-18T06:02:19.896Z,910.05
2018-10-18T06:03:19.875Z,910.06
2018-10-18T06:04:19.839Z,910.09
2018-10-18T06:05:19.828Z,910.08
2018-10-18T06:06:19.768Z,910.09
2018-10-18T06:07:19.745Z,910.15
2018-10-18T06:08:19.708Z,910.16
2018-10-18T06:09:19.680Z,910.17
2018-10-18T06:10:19.676Z,910.18
2018-10-18T06:11:19.626Z,910.22
2018-10-18T06:12:19.582Z,910.20
2018-10-18T06:13:19.627Z,910.23
2018-10-18T06:14:19.524Z,910.21
2018-10-18T06:15:19.490Z,910.22
2018-10-18T06:16:19.453Z,910.22
2018-10-18T06:17:19.426Z,910.20
2018-10-18T06:18:19.400Z,910.18
2018-10-18T06:19:19.569Z,910.18
2018-10-18T06:20:19.330Z,910.18
2018-10-18T06:21:19.294Z,910.19
2018-10-18T06:22:19.269Z,910.18
2018-10-18T06:23:19.333Z,910.17
2018-10-18T06:24:19.203Z,910.20
2018-10-18T06:25:19.194Z,910.18
2018-10-18T06:26:19.149Z,910.19
2018-10-18T06:27:19.333Z,910.19
2018-10-18T06:28:19.078Z,910.16
2018-10-18T06:29:19.054Z,910.20
2018-10-18T06:30:19.012Z,910.19
2018-10-18T06:31:18.981Z,910.20
2018-10-18T06:32:18.954Z,910.23
2018-10-18T06:33:18.917Z,910.26
2018-10-18T06:34:18.889Z,910.25
2018-10-18T06:35:18.905Z,910.22
2018-10-18T06:36:18.835Z,910.25
2018-10-18T06:37:18.835Z,910.27
2018-10-18T06:38:18.774Z,910.29
2018-10-18T06:39:18.781Z,910.30
2018-10-18T06:40:18.705Z,910.32
2018-10-18T06:41:18.728Z,910.31
2018-10-18T06:42:18.635Z,910.33
2018-10-18T06:43:18.723Z,910.31
2018-10-18T06:44:18.777Z,910.27
2018-10-18T06:45:18.562Z,910.28
2018-10-18T06:46:18.516Z,910.30
2018-10-18T06:47:18.555Z,910.28
2018-10-18T06:48:18.445Z,910.32
2018-10-18T06:49:18.556Z,910.29
2018-10-18T06:50:18.384Z,910.29
2018-10-18T06:51:18.352Z,910.22
2018-10-18T06:52:18.351Z,910.21
2018-10-18T06:53:18.288Z,910.20
2018-10-18T06:54:18.399Z,910.21
2018-10-18T06:55:18.321Z,910.24
2018-10-18T06:56:18.202Z,910.22
2018-10-18T06:57:18.170Z,910.22
2018-10-18T06:58:18.172Z,910.23
2018-10-18T06:59:18.104Z,910.22
2018-10-18T07:00:18.291Z,910.26
2018-10-18T07:01:18.044Z,910.31
2018-10-18T07:02:18.004Z,910.37
2018-10-18T07:03:17.990Z,910.41
2018-10-18T07:04:17.941Z,910.44
2018-10-18T07:05:17.906Z,910.45
2018-10-18T07:06:18.050Z,910.50
2018-10-18T07:07:17.848Z,910.53
2018-10-18T07:08:17.811Z,910.53
2018-10-18T07:09:17.786Z,910.57
2018-10-18T07:10:17.756Z,910.58
2018-10-18T07:11:17.728Z,910.56
2018-10-18T07:12:17.784Z,910.57
2018-10-18T07:13:17.655Z,910.59
2018-10-18T07:14:17.631Z,910.57
2018-10-18T07:15:17.595Z,910.55
2018-10-18T07:16:17.618Z,910.57
2018-10-18T07:17:17.570Z,910.56
2018-10-18T07:18:17.564Z,910.57
2018-10-18T07:19:17.477Z,910.58
2018-10-18T07:20:17.452Z,910.59
2018-10-18T07:21:17.398Z,910.60
2018-10-18T07:22:17.578Z,910.59
2018-10-18T07:23:17.337Z,910.66
2018-10-18T07:24:17.404Z,910.64
2018-10-18T07:25:17.332Z,910.66
2018-10-18T07:26:17.241Z,910.70
2018-10-18T07:27:17.209Z,910.71
2018-10-18T07:28:17.190Z,910.72
2018-10-18T07:29:17.152Z,910.74
2018-10-18T07:30:17.152Z,910.77
2018-10-18T07:31:17.086Z,910.77
2018-10-18T07:32:17.065Z,910.75
2018-10-18T07:33:17.020Z,910.74
2018-10-18T07:34:17.003Z,910.78
2018-10-18T07:35:16.962Z,910.77
2018-10-18T07:36:17.032Z,910.78
2018-10-18T07:37:16.901Z,910.81
2018-10-18T07:38:16.904Z,910.84
2018-10-18T07:39:16.827Z,910.85
2018-10-18T07:40:16.809Z,910.89
2018-10-18T07:41:16.821Z,910.87
2018-10-18T07:42:16.865Z,910.95
2018-10-18T07:43:16.705Z,910.95
2018-10-18T07:44:16.671Z,910.98
2018-10-18T07:45:16.675Z,910.99
2018-10-18T07:46:16.605Z,911.00
2018-10-18T07:47:16.591Z,910.98
2018-10-18T07:48:16.637Z,911.01
2018-10-18T07:49:16.961Z,910.98
2018-10-18T07:50:16.495Z,910.99
2018-10-18T07:51:16.464Z,910.98
2018-10-18T07:52:16.415Z,911.01
2018-10-18T07:53:16.493Z,910.99
2018-10-18T07:54:16.409Z,910.97
2018-10-18T07:55:16.320Z,910.99
2018-10-18T07:56:16.289Z,910.98
2018-10-18T07:57:16.258Z,910.99
2018-10-18T07:58:16.231Z,910.99
2018-10-18T07:59:16.193Z,910.97
2018-10-18T08:00:16.377Z,911.02
2018-10-18T08:01:16.128Z,911.03
2018-10-18T08:02:16.128Z,911.04
2018-10-18T08:03:16.070Z,911.04
2018-10-18T08:04:16.049Z,911.06
2018-10-18T08:05:16.041Z,911.05
2018-10-18T08:06:15.980Z,911.12
2018-10-18T08:07:16.006Z,911.12
2018-10-18T08:08:15.907Z,911.10
2018-10-18T08:09:15.880Z,911.14
2018-10-18T08:10:15.871Z,911.14
2018-10-18T08:11:15.823Z,911.16
2018-10-18T08:12:15.792Z,911.14
2018-10-18T08:13:15.883Z,911.18
2018-10-18T08:14:15.716Z,911.16
2018-10-18T08:15:15.687Z,911.15
2018-10-18T08:16:15.666Z,911.15
2018-10-18T08:17:15.640Z,911.15
2018-10-18T08:18:15.600Z,911.14
2018-10-18T08:19:15.598Z,911.15
2018-10-18T08:20:15.535Z,911.17
2018-10-18T08:21:15.512Z,911.16
2018-10-18T08:22:15.463Z,911.20
2018-10-18T08:23:15.441Z,911.23
2018-10-18T08:24:15.414Z,911.27
2018-10-18T08:25:15.471Z,911.29
2018-10-18T08:26:15.339Z,911.32
2018-10-18T08:27:15.315Z,911.32
2018-10-18T08:28:15.284Z,911.30
2018-10-18T08:29:15.242Z,911.34
2018-10-18T08:30:15.250Z,911.37
2018-10-18T08:31:15.335Z,911.40
2018-10-18T08:32:15.151Z,911.44
2018-10-18T08:33:15.120Z,911.45
2018-10-18T08:34:15.087Z,911.45
2018-10-18T08:35:15.118Z,911.46
2018-10-18T08:37:15.115Z,911.42
2018-10-18T08:38:15.045Z,911.43
2018-10-18T08:39:14.931Z,911.44
2018-10-18T08:40:14.898Z,911.48
2018-10-18T08:41:14.873Z,911.50
2018-10-18T08:42:14.829Z,911.61
2018-10-18T08:43:14.904Z,911.61
2018-10-18T08:44:14.772Z,911.65
2018-10-18T08:45:14.726Z,911.72
2018-10-18T08:46:14.739Z,911.72
2018-10-18T08:47:14.667Z,911.81
2018-10-18T08:48:14.635Z,911.80
2018-10-18T08:49:14.631Z,911.82
2018-10-18T08:50:14.568Z,911.80
2018-10-18T08:51:14.568Z,911.81
2018-10-18T08:52:14.514Z,911.83
2018-10-18T08:53:14.475Z,911.87
2018-10-18T08:54:14.449Z,911.89
2018-10-18T08:55:14.506Z,911.92
2018-10-18T08:56:14.389Z,911.94
2018-10-18T08:57:14.556Z,912.00
2018-10-18T08:58:14.325Z,912.04
2018-10-18T08:59:14.355Z,912.12
2018-10-18T09:00:14.258Z,912.15
2018-10-18T09:01:14.298Z,912.19
2018-10-18T09:02:14.198Z,912.23
2018-10-18T09:03:14.317Z,912.28
2018-10-18T09:04:14.122Z,912.32
2018-10-18T09:05:14.098Z,912.38
2018-10-18T09:06:14.063Z,912.42
2018-10-18T09:07:14.095Z,912.45
2018-10-18T09:08:14.005Z,912.44
2018-10-18T09:09:14.073Z,912.45
2018-10-18T09:10:13.937Z,912.45
2018-10-18T09:11:13.912Z,912.46
2018-10-18T09:12:13.890Z,912.49
2018-10-18T09:13:13.903Z,912.48
2018-10-18T09:14:13.829Z,912.54
2018-10-18T09:15:13.771Z,912.58
2018-10-18T09:16:13.817Z,912.60
2018-10-18T09:17:13.798Z,912.64
2018-10-18T09:18:13.679Z,912.62
2018-10-18T09:19:13.679Z,912.60
2018-10-18T09:20:13.609Z,912.66
2018-10-18T09:21:13.589Z,912.61
2018-10-18T09:22:13.563Z,912.59
2018-10-18T09:23:13.531Z,912.60
2018-10-18T09:24:13.487Z,912.60
2018-10-18T09:25:14.066Z,912.63
2018-10-18T09:28:04.369Z,912.72
2018-10-18T09:29:04.331Z,912.78
2018-10-18T09:30:04.316Z,912.81
2018-10-18T09:31:04.510Z,912.82
2018-10-18T09:32:04.265Z,912.85
2018-10-18T09:33:04.206Z,912.89
2018-10-18T09:34:04.184Z,912.91
2018-10-18T09:35:04.140Z,912.94
2018-10-18T09:36:04.115Z,912.95
2018-10-18T09:37:04.141Z,912.98
2018-10-18T09:38:04.078Z,913.04
2018-10-18T09:39:04.076Z,913.10
2018-10-18T09:40:04.090Z,913.11
2018-10-18T09:41:03.977Z,913.17
2018-10-18T09:42:03.919Z,913.24
2018-10-18T09:43:03.936Z,913.26
2018-10-18T09:44:03.873Z,913.24
2018-10-18T09:47:50.259Z,913.28
2018-10-18T09:48:50.076Z,913.33
2018-10-18T09:49:50.051Z,913.31
2018-10-18T09:53:50.121Z,913.31
2018-10-18T09:54:49.882Z,913.24
2018-10-18T09:55:49.909Z,913.25
2018-10-18T09:56:49.821Z,913.28
2018-10-18T09:57:49.788Z,913.27
2018-10-18T09:58:49.768Z,913.28
2018-10-18T09:59:49.932Z,913.31
2018-10-18T10:00:49.699Z,913.31
2018-10-18T10:01:49.664Z,913.30
2018-10-18T10:02:49.633Z,913.32
2018-10-18T10:03:49.604Z,913.31
2018-10-18T10:04:49.599Z,913.33
2018-10-18T10:05:49.528Z,913.31
2018-10-18T10:06:49.505Z,913.31
2018-10-18T10:09:48.018Z,913.33
2018-10-18T10:10:35.448Z,913.24
2018-10-18T10:11:35.272Z,913.24
2018-10-18T10:12:35.200Z,913.29
2018-10-18T10:13:35.246Z,913.25
2018-10-18T10:14:35.121Z,913.23
2018-10-18T10:15:35.091Z,913.25
2018-10-18T10:16:35.145Z,913.26
2018-10-18T10:17:35.080Z,913.26
2018-10-18T10:18:35.003Z,913.25
2018-10-18T10:19:34.974Z,913.28
2018-10-18T10:20:34.950Z,913.23
2018-10-18T10:21:34.899Z,913.23
2018-10-18T10:22:34.884Z,913.20
2018-10-18T10:23:34.833Z,913.22
2018-10-18T10:26:34.113Z,913.21
2018-10-18T10:29:21.473Z,913.23
2018-10-18T10:32:50.796Z,913.23
2018-10-18T10:33:04.867Z,913.28
2018-10-18T10:34:04.756Z,913.25
2018-10-18T10:35:04.732Z,913.28
2018-10-18T10:36:04.679Z,913.28
2018-10-18T10:37:04.719Z,913.22
2018-10-18T10:38:04.672Z,913.21
2018-10-18T10:39:04.638Z,913.19
2018-10-18T10:40:04.567Z,913.20
2018-10-18T10:41:04.587Z,913.21
2018-10-18T10:42:04.517Z,913.22
2018-10-18T10:43:04.530Z,913.20
2018-10-18T10:44:04.498Z,913.24
2018-10-18T10:45:04.439Z,913.24
2018-10-18T10:46:04.444Z,913.23
2018-10-18T10:47:04.364Z,913.26
2018-10-18T10:48:04.380Z,913.26
2018-10-18T10:49:04.339Z,913.26
2018-10-18T10:50:04.333Z,913.23
2018-10-18T10:51:04.303Z,913.24
2018-10-18T10:52:04.184Z,913.27
2018-10-18T10:53:04.137Z,913.28
2018-10-18T10:54:04.144Z,913.35
2018-10-18T10:55:04.074Z,913.38
2018-10-18T10:56:04.133Z,913.44
2018-10-18T10:57:04.331Z,913.47
2018-10-18T10:58:04.070Z,913.50
2018-10-18T10:59:03.998Z,913.51
2018-10-18T11:00:03.969Z,913.52
2018-10-18T11:03:50.322Z,913.58
2018-10-18T11:04:50.434Z,913.60
2018-10-18T11:05:50.129Z,913.57
2018-10-18T11:06:50.092Z,913.61
2018-10-18T11:07:50.058Z,913.60
2018-10-18T11:08:50.013Z,913.62
2018-10-18T11:09:50.397Z,913.62
2018-10-18T11:10:49.952Z,913.60
2018-10-18T11:11:49.975Z,913.62
2018-10-18T11:12:49.908Z,913.60
2018-10-18T11:13:49.866Z,913.61
2018-10-18T11:14:49.824Z,913.62
2018-10-18T11:15:49.865Z,913.64
2018-10-18T11:16:49.780Z,913.62
2018-10-18T11:17:49.740Z,913.62
2018-10-18T11:18:49.715Z,913.60
2018-10-18T11:19:49.667Z,913.64
2018-10-18T11:20:49.632Z,913.60
2018-10-18T11:21:49.648Z,913.60
2018-10-18T11:22:49.574Z,913.60
2018-10-18T11:23:49.541Z,913.58
2018-10-18T11:24:49.545Z,913.56
2018-10-18T11:25:49.474Z,913.56
2018-10-18T11:26:49.591Z,913.55
2018-10-18T11:27:49.417Z,913.53
2018-10-18T11:28:49.376Z,913.55
2018-10-18T11:29:49.359Z,913.56
2018-10-18T11:30:49.429Z,913.57
2018-10-18T11:31:49.284Z,913.54
2018-10-18T11:33:49.221Z,913.59
2018-10-18T11:34:49.210Z,913.55
2018-10-18T11:35:49.171Z,913.51
2018-10-18T11:36:49.125Z,913.49
2018-10-18T11:37:49.253Z,913.47
2018-10-18T11:38:49.076Z,913.46
2018-10-18T11:39:49.054Z,913.44
2018-10-18T11:40:49.011Z,913.41
2018-10-18T11:41:48.974Z,913.43
2018-10-18T11:42:49.038Z,913.40
2018-10-18T11:43:48.912Z,913.36
2018-10-18T11:44:48.873Z,913.39
2018-10-18T11:45:48.843Z,913.44
2018-10-18T11:46:48.810Z,913.43
2018-10-18T11:47:48.775Z,913.43
2018-10-18T11:48:48.759Z,913.45
2018-10-18T11:49:48.723Z,913.43
2018-10-18T11:50:48.693Z,913.42
2018-10-18T11:51:48.770Z,913.41
2018-10-18T11:52:48.623Z,913.41
2018-10-18T11:53:48.619Z,913.35
2018-10-18T11:54:48.775Z,913.36
2018-10-18T11:55:48.550Z,913.40
2018-10-18T11:56:48.514Z,913.37
2018-10-18T11:57:48.474Z,913.40
2018-10-18T11:58:48.445Z,913.41
2018-10-18T11:59:48.424Z,913.36
2018-10-18T12:00:48.372Z,913.40
2018-10-18T12:01:48.347Z,913.41
2018-10-18T12:02:48.391Z,913.42
2018-10-18T12:03:48.281Z,913.44
2018-10-18T12:04:48.256Z,913.41
2018-10-18T12:05:48.225Z,913.44
2018-10-18T12:06:48.199Z,913.43
2018-10-18T12:07:48.159Z,913.45
2018-10-18T12:08:48.127Z,913.41
2018-10-18T12:09:48.100Z,913.36
2018-10-18T12:10:48.270Z,913.36
2018-10-18T12:11:48.030Z,913.30
2018-10-18T12:12:48.001Z,913.28
2018-10-18T12:13:47.964Z,913.26
2018-10-18T12:14:47.959Z,913.31
2018-10-18T12:15:47.943Z,913.29
2018-10-18T12:16:47.878Z,913.30
2018-10-18T12:17:47.861Z,913.31
2018-10-18T12:18:47.819Z,913.33
2018-10-18T12:19:47.788Z,913.37
2018-10-18T12:20:47.773Z,913.35
2018-10-18T12:21:47.725Z,913.32
2018-10-18T12:22:47.689Z,913.34
2018-10-18T12:23:47.672Z,913.31
2018-10-18T12:24:47.628Z,913.26
2018-10-18T12:25:47.601Z,913.24
2018-10-18T12:26:47.603Z,913.23
2018-10-18T12:27:47.533Z,913.21
2018-10-18T12:28:47.511Z,913.23
2018-10-18T12:29:47.480Z,913.22
2018-10-18T12:30:47.458Z,913.25
2018-10-18T12:31:47.415Z,913.24
2018-10-18T12:32:47.484Z,913.25
2018-10-18T12:33:47.359Z,913.26
2018-10-18T12:34:47.330Z,913.25
2018-10-18T12:35:47.307Z,913.18
2018-10-18T12:36:47.278Z,913.19
2018-10-18T12:37:47.238Z,913.18
2018-10-18T12:38:47.214Z,913.19
2018-10-18T12:39:47.246Z,913.20
2018-10-18T12:40:47.198Z,913.22
2018-10-18T12:41:47.150Z,913.16
2018-10-18T12:42:47.091Z,913.19
2018-10-18T12:43:47.210Z,913.17
2018-10-18T12:44:47.028Z,913.16
2018-10-18T12:45:46.990Z,913.19
2018-10-18T12:46:46.959Z,913.19
2018-10-18T12:47:46.944Z,913.12
2018-10-18T12:48:47.008Z,913.11
2018-10-18T12:49:47.078Z,913.09
2018-10-18T12:53:25.825Z,913.10
2018-10-18T12:53:33.380Z,913.09
2018-10-18T12:54:33.455Z,913.07